Time;durP1;ratioP1;P1;durP2;ratioP2;P2;SDS_P1;SDS_P2;PMS_P1;PMS_P2;Temp;Humidity;BMP_temperature;BMP_pressure;BME280_temperature;BME280_humidity;BME280_pressure;Samples;Min_cycle;Max_cycle;Signal;HPM_P1;HPM_P2
2022/05/16 00:02:21;;;;;;;12.30;5.03;;;;;;;;;;4967106;28;20042;-87
2022/05/16 00:04:49;;;;;;;11.10;4.28;;;;;;;;;;4985125;28;20135;-87
2022/05/16 00:07:16;;;;;;;14.95;5.13;;;;;;;;;;4971316;28;20645;-87
2022/05/16 00:09:43;;;;;;;11.45;4.68;;;;;;;;;;4964595;28;20487;-87
2022/05/16 00:12:09;;;;;;;9.63;4.35;;;;;;;;;;4968085;28;20474;-87
2022/05/16 00:14:36;;;;;;;15.57;5.43;;;;;;;;;;4960767;28;20026;-87
2022/05/16 00:17:02;;;;;;;11.65;4.50;;;;;;;;;;4984618;28;20041;-87
2022/05/16 00:19:29;;;;;;;14.80;5.10;;;;;;;;;;4965098;28;20069;-88
2022/05/16 00:21:55;;;;;;;10.05;4.50;;;;;;;;;;4965742;28;20509;-88
2022/05/16 00:24:26;;;;;;;15.40;5.03;;;;;;;;;;4967695;28;20038;-87
2022/05/16 00:26:52;;;;;;;17.73;4.90;;;;;;;;;;4966358;28;20129;-88
2022/05/16 00:29:18;;;;;;;11.63;4.78;;;;;;;;;;4967320;28;20023;-89
2022/05/16 00:31:44;;;;;;;9.77;4.78;;;;;;;;;;4965542;28;20031;-89
2022/05/16 00:34:10;;;;;;;20.65;4.80;;;;;;;;;;4971852;28;20022;-90
2022/05/16 00:36:36;;;;;;;13.50;4.53;;;;;;;;;;4961065;28;20046;-88
2022/05/16 00:39:02;;;;;;;8.70;3.70;;;;;;;;;;4969980;28;20090;-88
2022/05/16 00:41:28;;;;;;;8.75;3.97;;;;;;;;;;4978134;28;20031;-88
2022/05/16 00:43:57;;;;;;;11.52;4.45;;;;;;;;;;4959634;28;20038;-88
2022/05/16 00:46:24;;;;;;;16.33;4.30;;;;;;;;;;4965122;28;20029;-88
2022/05/16 00:48:50;;;;;;;7.57;4.07;;;;;;;;;;4965175;28;20027;-88
2022/05/16 00:51:22;;;;;;;10.40;4.47;;;;;;;;;;4983917;28;20034;-88
2022/05/16 00:53:49;;;;;;;11.05;4.20;;;;;;;;;;4965062;28;20029;-87
2022/05/16 00:56:16;;;;;;;11.05;4.63;;;;;;;;;;4970422;28;20081;-88
2022/05/16 00:58:42;;;;;;;11.43;3.65;;;;;;;;;;4966217;28;20031;-88
2022/05/16 01:06:42;;;;;;;6.65;3.78;;;;;;;;;;4983481;28;20100;-87
2022/05/16 01:09:08;;;;;;;14.45;4.30;;;;;;;;;;4979619;28;20038;-87
2022/05/16 01:11:36;;;;;;;16.50;3.47;;;;;;;;;;4960299;28;20406;-88
2022/05/16 01:14:02;;;;;;;10.55;3.97;;;;;;;;;;4979240;28;20041;-88
2022/05/16 01:16:28;;;;;;;10.52;3.60;;;;;;;;;;4960444;28;20041;-88
2022/05/16 01:18:54;;;;;;;6.45;3.40;;;;;;;;;;4965041;28;20018;-88
2022/05/16 01:21:26;;;;;;;10.00;3.20;;;;;;;;;;4961630;28;20027;-88
2022/05/16 01:24:02;;;;;;;9.68;3.95;;;;;;;;;;4983422;28;20783;-89
2022/05/16 01:26:32;;;;;;;9.10;3.15;;;;;;;;;;4965923;28;20034;-88
2022/05/16 01:28:58;;;;;;;5.97;2.88;;;;;;;;;;4963576;28;20031;-88
2022/05/16 01:31:24;;;;;;;5.72;3.03;;;;;;;;;;4965380;28;20736;-87
2022/05/16 01:33:51;;;;;;;8.02;3.10;;;;;;;;;;4978360;28;20038;-87
2022/05/16 01:36:17;;;;;;;6.32;2.88;;;;;;;;;;4966261;28;20018;-88
2022/05/16 01:38:43;;;;;;;9.10;2.97;;;;;;;;;;4964770;28;20041;-88
2022/05/16 01:41:13;;;;;;;11.00;2.72;;;;;;;;;;4965088;28;20034;-89
2022/05/16 01:43:41;;;;;;;7.72;2.92;;;;;;;;;;4973374;28;20125;-88
2022/05/16 01:46:08;;;;;;;5.93;2.88;;;;;;;;;;4967639;28;20088;-88
2022/05/16 01:48:34;;;;;;;9.45;2.60;;;;;;;;;;4967890;28;20039;-88
2022/05/16 01:51:01;;;;;;;5.05;2.58;;;;;;;;;;4960467;28;20510;-88
2022/05/16 01:53:27;;;;;;;5.72;2.47;;;;;;;;;;4968808;28;20038;-87
2022/05/16 01:55:54;;;;;;;5.22;2.75;;;;;;;;;;4983934;28;20037;-87
2022/05/16 01:58:20;;;;;;;6.18;2.50;;;;;;;;;;4967448;28;20034;-88
2022/05/16 02:00:46;;;;;;;7.28;2.65;;;;;;;;;;4967526;28;20026;-88
2022/05/16 02:03:12;;;;;;;13.15;2.58;;;;;;;;;;4965332;28;20541;-88
2022/05/16 02:05:38;;;;;;;8.77;2.45;;;;;;;;;;4956783;28;20031;-88
2022/05/16 02:08:04;;;;;;;5.90;2.20;;;;;;;;;;4981148;28;20113;-88
2022/05/16 02:10:30;;;;;;;4.55;2.42;;;;;;;;;;4968976;28;20043;-88
2022/05/16 02:12:57;;;;;;;5.47;2.50;;;;;;;;;;4981009;28;20030;-88
2022/05/16 02:15:25;;;;;;;5.35;2.28;;;;;;;;;;4968048;28;20058;-88
2022/05/16 02:17:51;;;;;;;4.22;2.25;;;;;;;;;;4984299;28;20034;-88
2022/05/16 02:20:17;;;;;;;10.98;2.55;;;;;;;;;;4965155;28;20034;-88
2022/05/16 02:25:28;;;;;;;7.55;2.70;;;;;;;;;;4982388;28;20073;-88
2022/05/16 02:27:55;;;;;;;4.90;2.20;;;;;;;;;;4968218;28;20394;-87
2022/05/16 02:30:22;;;;;;;3.83;2.30;;;;;;;;;;4964651;28;20565;-88
2022/05/16 02:32:49;;;;;;;3.70;2.70;;;;;;;;;;4969719;28;20565;-88
2022/05/16 02:35:15;;;;;;;6.78;2.50;;;;;;;;;;4964736;28;20026;-88
2022/05/16 02:37:41;;;;;;;9.07;2.78;;;;;;;;;;4964764;28;20022;-87
2022/05/16 02:40:07;;;;;;;4.22;2.10;;;;;;;;;;4968302;28;20042;-88
2022/05/16 02:42:34;;;;;;;5.05;2.17;;;;;;;;;;4969939;28;20068;-87
2022/05/16 02:45:00;;;;;;;6.97;2.53;;;;;;;;;;4964662;28;20052;-88
2022/05/16 02:47:26;;;;;;;5.25;2.58;;;;;;;;;;4967849;28;20129;-87
2022/05/16 02:49:52;;;;;;;5.10;2.15;;;;;;;;;;4970656;28;20065;-88
2022/05/16 02:52:18;;;;;;;11.18;2.95;;;;;;;;;;4971272;28;20094;-88
2022/05/16 02:54:45;;;;;;;16.13;2.38;;;;;;;;;;4967358;28;20117;-87
2022/05/16 02:57:11;;;;;;;7.03;2.60;;;;;;;;;;4981619;28;20379;-88
2022/05/16 02:59:37;;;;;;;5.93;2.58;;;;;;;;;;4981656;28;20526;-87
2022/05/16 03:02:05;;;;;;;3.78;2.05;;;;;;;;;;4980456;28;20034;-88
2022/05/16 03:04:31;;;;;;;5.85;2.38;;;;;;;;;;4967853;28;20402;-87
2022/05/16 03:06:58;;;;;;;6.35;2.05;;;;;;;;;;4968995;28;20513;-88
2022/05/16 03:09:25;;;;;;;7.10;2.42;;;;;;;;;;4964712;28;20065;-87
2022/05/16 03:11:52;;;;;;;3.83;2.30;;;;;;;;;;4964510;28;20064;-87
2022/05/16 03:14:18;;;;;;;7.15;2.83;;;;;;;;;;4966489;28;20485;-87
2022/05/16 03:16:44;;;;;;;14.63;2.63;;;;;;;;;;4965462;28;20852;-88
2022/05/16 03:19:10;;;;;;;4.20;2.83;;;;;;;;;;4962146;28;20137;-88
2022/05/16 03:21:36;;;;;;;8.48;2.15;;;;;;;;;;4960956;28;20119;-88
2022/05/16 03:24:03;;;;;;;5.68;2.15;;;;;;;;;;4969138;28;20095;-88
2022/05/16 03:26:29;;;;;;;3.45;1.92;;;;;;;;;;4984453;28;20096;-88
2022/05/16 03:28:55;;;;;;;6.57;3.35;;;;;;;;;;4980735;28;20042;-87
2022/05/16 03:31:21;;;;;;;5.28;2.10;;;;;;;;;;4963561;28;20033;-87
2022/05/16 03:33:47;;;;;;;7.57;2.42;;;;;;;;;;4963913;28;20026;-87
2022/05/16 03:36:13;;;;;;;6.53;2.53;;;;;;;;;;4962026;28;20034;-87
2022/05/16 03:41:24;;;;;;;4.57;2.47;;;;;;;;;;4982684;28;20691;-88
2022/05/16 03:43:50;;;;;;;6.57;2.08;;;;;;;;;;4966288;28;20442;-88
2022/05/16 03:46:17;;;;;;;5.90;2.20;;;;;;;;;;4962083;28;20038;-87
2022/05/16 03:48:43;;;;;;;8.40;2.80;;;;;;;;;;4965813;28;20812;-88
2022/05/16 03:51:10;;;;;;;5.38;1.98;;;;;;;;;;4967209;28;20114;-88
2022/05/16 03:53:38;;;;;;;5.55;2.50;;;;;;;;;;4963609;28;20034;-88
2022/05/16 03:56:04;;;;;;;6.78;2.28;;;;;;;;;;4969738;28;20029;-88
2022/05/16 03:58:30;;;;;;;6.32;2.65;;;;;;;;;;4963169;28;20133;-88
2022/05/16 04:01:02;;;;;;;6.00;2.05;;;;;;;;;;4966923;28;20066;-89
2022/05/16 04:03:28;;;;;;;7.18;2.20;;;;;;;;;;4963358;28;20043;-89
2022/05/16 04:05:54;;;;;;;4.75;2.30;;;;;;;;;;4986562;28;20064;-88
2022/05/16 04:08:20;;;;;;;7.22;2.28;;;;;;;;;;4958353;28;20046;-88
2022/05/16 04:10:46;;;;;;;5.90;2.10;;;;;;;;;;4968402;28;20037;-87
2022/05/16 04:13:13;;;;;;;4.55;2.50;;;;;;;;;;4966535;28;20130;-88
2022/05/16 04:15:39;;;;;;;4.55;2.80;;;;;;;;;;4980851;28;20035;-87
2022/05/16 04:18:05;;;;;;;3.90;2.10;;;;;;;;;;4966864;28;20067;-88
2022/05/16 04:20:31;;;;;;;5.63;2.83;;;;;;;;;;4962180;28;20402;-88
2022/05/16 04:22:57;;;;;;;5.05;2.42;;;;;;;;;;4962952;28;20045;-87
2022/05/16 04:25:23;;;;;;;8.10;2.58;;;;;;;;;;4962409;28;20069;-88
2022/05/16 04:27:49;;;;;;;7.15;2.40;;;;;;;;;;4967172;28;20046;-88
2022/05/16 04:30:15;;;;;;;10.88;2.28;;;;;;;;;;4982539;28;20490;-88
2022/05/16 04:32:44;;;;;;;5.82;2.20;;;;;;;;;;4965953;28;20030;-86
2022/05/16 04:35:10;;;;;;;7.55;2.20;;;;;;;;;;4963784;28;20117;-88
2022/05/16 04:37:36;;;;;;;4.13;2.35;;;;;;;;;;4980925;28;20077;-88
2022/05/16 04:40:04;;;;;;;5.38;2.50;;;;;;;;;;4987528;28;20069;-88
2022/05/16 04:42:42;;;;;;;10.85;2.70;;;;;;;;;;4964929;28;20061;-88
2022/05/16 04:45:19;;;;;;;10.60;2.35;;;;;;;;;;4982362;28;20031;-86
2022/05/16 04:47:46;;;;;;;7.80;2.85;;;;;;;;;;4966590;28;20138;-88
2022/05/16 04:50:13;;;;;;;4.93;2.38;;;;;;;;;;4967175;28;20553;-88
2022/05/16 04:52:39;;;;;;;5.15;2.17;;;;;;;;;;4981185;28;20428;-88
2022/05/16 04:55:06;;;;;;;7.57;2.30;;;;;;;;;;4970056;28;20034;-88
2022/05/16 04:57:32;;;;;;;6.53;2.05;;;;;;;;;;4962349;28;20696;-88
2022/05/16 04:59:58;;;;;;;7.55;2.58;;;;;;;;;;4970664;28;20049;-88
2022/05/16 05:02:24;;;;;;;4.30;1.88;;;;;;;;;;4980389;28;20188;-88
2022/05/16 05:04:50;;;;;;;8.82;2.10;;;;;;;;;;4986044;28;20522;-88
2022/05/16 05:07:17;;;;;;;6.90;2.65;;;;;;;;;;4965426;28;20062;-88
2022/05/16 05:15:19;;;;;;;6.20;2.30;;;;;;;;;;4985629;28;20465;-88
2022/05/16 05:17:45;;;;;;;3.40;2.17;;;;;;;;;;4983088;28;20029;-88
2022/05/16 05:20:14;;;;;;;6.88;2.83;;;;;;;;;;4967767;28;20518;-89
2022/05/16 05:22:45;;;;;;;5.93;2.70;;;;;;;;;;4966620;28;20042;-88
2022/05/16 05:25:12;;;;;;;9.57;2.72;;;;;;;;;;4960328;28;20835;-88
2022/05/16 05:27:41;;;;;;;3.97;2.20;;;;;;;;;;4966991;28;20781;-88
2022/05/16 05:30:09;;;;;;;5.07;2.83;;;;;;;;;;4966432;28;20096;-89
2022/05/16 05:32:35;;;;;;;9.00;2.53;;;;;;;;;;4961382;28;20069;-89
2022/05/16 05:35:01;;;;;;;9.40;3.03;;;;;;;;;;4970155;28;20556;-88
2022/05/16 05:37:27;;;;;;;7.72;2.70;;;;;;;;;;4964451;28;20458;-88
2022/05/16 05:39:54;;;;;;;6.32;2.33;;;;;;;;;;4969236;28;20045;-89
2022/05/16 05:42:20;;;;;;;11.98;2.90;;;;;;;;;;4970203;28;20038;-89
2022/05/16 05:44:46;;;;;;;3.83;2.20;;;;;;;;;;4983370;28;20039;-88
2022/05/16 05:47:12;;;;;;;5.45;2.58;;;;;;;;;;4989498;28;20038;-88
2022/05/16 05:49:38;;;;;;;9.70;2.70;;;;;;;;;;4963476;28;20037;-88
2022/05/16 05:52:04;;;;;;;11.00;3.00;;;;;;;;;;4967251;28;20053;-88
2022/05/16 05:54:30;;;;;;;7.55;2.47;;;;;;;;;;4989361;28;20030;-88
2022/05/16 05:56:56;;;;;;;7.25;3.13;;;;;;;;;;4992500;28;20068;-88
2022/05/16 05:59:23;;;;;;;6.18;2.60;;;;;;;;;;4965451;28;20041;-88
2022/05/16 06:01:50;;;;;;;6.70;3.15;;;;;;;;;;4982332;28;20159;-88
2022/05/16 06:04:16;;;;;;;4.68;2.55;;;;;;;;;;4971206;28;20030;-89
2022/05/16 06:06:43;;;;;;;8.15;2.78;;;;;;;;;;4983073;28;20031;-88
2022/05/16 06:09:09;;;;;;;5.93;2.75;;;;;;;;;;4967661;28;20481;-88
2022/05/16 06:11:35;;;;;;;12.13;2.70;;;;;;;;;;4983032;28;20088;-88
2022/05/16 06:14:01;;;;;;;4.47;3.08;;;;;;;;;;4964762;28;20049;-87
2022/05/16 06:16:27;;;;;;;8.27;3.15;;;;;;;;;;4968570;28;20681;-88
2022/05/16 06:18:53;;;;;;;5.68;2.47;;;;;;;;;;4979353;28;20030;-88
2022/05/16 06:21:20;;;;;;;5.65;3.03;;;;;;;;;;4968218;28;20708;-87
2022/05/16 06:23:52;;;;;;;14.88;2.70;;;;;;;;;;4964852;28;20089;-88
2022/05/16 06:26:18;;;;;;;3.25;2.03;;;;;;;;;;4967920;28;20537;-87
2022/05/16 06:28:44;;;;;;;5.38;2.90;;;;;;;;;;4967034;28;20038;-88
2022/05/16 06:31:11;;;;;;;4.63;2.65;;;;;;;;;;4970174;28;20104;-87
2022/05/16 06:33:37;;;;;;;12.68;2.70;;;;;;;;;;4967650;28;20149;-88
2022/05/16 06:36:05;;;;;;;7.07;2.90;;;;;;;;;;4965260;28;20026;-87
2022/05/16 06:38:32;;;;;;;14.27;2.88;;;;;;;;;;4973307;28;20394;-88
2022/05/16 06:40:59;;;;;;;14.65;2.90;;;;;;;;;;4966726;28;20037;-88
2022/05/16 06:43:26;;;;;;;7.18;2.83;;;;;;;;;;4964526;28;20042;-88
2022/05/16 06:45:53;;;;;;;14.05;2.75;;;;;;;;;;4961188;28;20093;-87
2022/05/16 06:48:19;;;;;;;8.07;2.80;;;;;;;;;;4971100;28;20062;-87
2022/05/16 06:50:46;;;;;;;12.20;2.75;;;;;;;;;;4965407;28;20030;-85
2022/05/16 06:53:13;;;;;;;11.07;3.03;;;;;;;;;;4962210;28;20034;-87
2022/05/16 06:55:39;;;;;;;9.73;2.97;;;;;;;;;;4966246;28;20045;-87
2022/05/16 06:58:05;;;;;;;14.82;3.45;;;;;;;;;;4960819;28;20046;-86
2022/05/16 07:00:31;;;;;;;12.07;2.72;;;;;;;;;;4959862;28;20031;-86
2022/05/16 07:02:57;;;;;;;7.38;2.60;;;;;;;;;;4965312;28;20092;-87
2022/05/16 07:05:23;;;;;;;8.25;3.10;;;;;;;;;;4956194;28;20608;-87
2022/05/16 07:07:49;;;;;;;12.38;3.38;;;;;;;;;;4967987;28;20730;-87
2022/05/16 07:10:15;;;;;;;9.35;2.83;;;;;;;;;;4970016;28;20038;-87
2022/05/16 07:12:42;;;;;;;16.20;2.95;;;;;;;;;;4967925;28;20461;-88
2022/05/16 07:15:08;;;;;;;4.55;2.42;;;;;;;;;;4969382;28;20054;-87
2022/05/16 07:17:34;;;;;;;9.32;2.58;;;;;;;;;;4966708;28;20498;-87
2022/05/16 07:20:00;;;;;;;10.73;2.45;;;;;;;;;;4966828;28;20514;-86
2022/05/16 07:22:26;;;;;;;6.55;2.83;;;;;;;;;;4967479;28;20034;-87
2022/05/16 07:24:55;;;;;;;11.52;3.35;;;;;;;;;;4965337;28;20050;-88
2022/05/16 07:30:08;;;;;;;18.35;3.53;;;;;;;;;;4987365;28;20615;-87
2022/05/16 07:32:35;;;;;;;17.05;3.22;;;;;;;;;;4964714;28;20554;-86
2022/05/16 07:35:02;;;;;;;6.00;2.50;;;;;;;;;;4963251;28;20037;-87
2022/05/16 07:37:29;;;;;;;10.57;3.72;;;;;;;;;;4958437;28;20059;-87
2022/05/16 07:39:55;;;;;;;9.20;2.80;;;;;;;;;;4961219;28;20345;-88
2022/05/16 07:42:21;;;;;;;17.88;2.88;;;;;;;;;;4964700;28;20200;-87
2022/05/16 07:44:48;;;;;;;3.60;2.35;;;;;;;;;;4960138;28;20034;-86
2022/05/16 07:47:14;;;;;;;6.32;2.65;;;;;;;;;;4966964;28;20267;-87
2022/05/16 07:49:40;;;;;;;7.90;3.10;;;;;;;;;;4963858;28;20125;-87
2022/05/16 07:52:07;;;;;;;14.65;3.00;;;;;;;;;;4971745;28;20684;-86
2022/05/16 07:54:34;;;;;;;8.60;3.00;;;;;;;;;;4969632;28;20099;-87
2022/05/16 07:57:02;;;;;;;16.63;3.08;;;;;;;;;;4969299;28;20027;-86
2022/05/16 07:59:28;;;;;;;14.10;2.83;;;;;;;;;;4967437;28;20125;-86
2022/05/16 08:01:54;;;;;;;15.88;3.13;;;;;;;;;;4969185;28;20065;-87
2022/05/16 08:04:21;;;;;;;15.63;3.70;;;;;;;;;;4966253;28;20658;-86
2022/05/16 08:06:51;;;;;;;5.57;2.50;;;;;;;;;;4963532;28;20081;-87
2022/05/16 08:12:02;;;;;;;11.60;3.25;;;;;;;;;;4979387;28;20088;-87
2022/05/16 08:14:29;;;;;;;9.55;3.10;;;;;;;;;;4982977;28;20578;-86
2022/05/16 08:16:55;;;;;;;10.82;2.60;;;;;;;;;;4971393;28;20087;-85
2022/05/16 08:19:21;;;;;;;12.85;3.40;;;;;;;;;;4967989;28;20034;-86
2022/05/16 08:21:48;;;;;;;25.55;6.43;;;;;;;;;;4988650;28;20084;-87
2022/05/16 08:24:14;;;;;;;16.48;3.22;;;;;;;;;;4969012;28;20050;-87
2022/05/16 08:26:40;;;;;;;8.52;2.85;;;;;;;;;;4962044;28;20506;-86
2022/05/16 08:29:06;;;;;;;5.07;2.72;;;;;;;;;;4970100;28;20034;-87
2022/05/16 08:31:33;;;;;;;14.27;3.00;;;;;;;;;;4962330;28;20521;-87
2022/05/16 08:33:59;;;;;;;17.17;3.63;;;;;;;;;;4973020;28;20474;-87
2022/05/16 08:41:57;;;;;;;46.70;6.07;;;;;;;;;;4989380;28;20173;-87
2022/05/16 08:44:27;;;;;;;17.38;3.42;;;;;;;;;;4971660;28;20652;-87
2022/05/16 08:46:55;;;;;;;18.33;3.92;;;;;;;;;;4971533;28;20120;-88
2022/05/16 08:49:27;;;;;;;22.73;3.85;;;;;;;;;;4971481;28;20466;-88
2022/05/16 08:52:03;;;;;;;28.38;4.30;;;;;;;;;;4973640;28;20545;-89
2022/05/16 08:54:29;;;;;;;5.63;3.30;;;;;;;;;;4966486;28;20026;-90
2022/05/16 08:56:56;;;;;;;11.82;2.75;;;;;;;;;;4986233;28;20033;-89
2022/05/16 08:59:24;;;;;;;13.00;2.92;;;;;;;;;;4966262;28;20034;-88
2022/05/16 09:01:52;;;;;;;17.90;3.60;;;;;;;;;;4960908;28;20042;-91
2022/05/16 09:04:36;;;;;;;15.38;3.33;;;;;;;;;;4971802;28;20512;-90
2022/05/16 09:07:37;;;;;;;9.98;2.95;;;;;;;;;;4978839;28;20038;-88
2022/05/16 09:10:07;;;;;;;22.23;3.72;;;;;;;;;;4897975;29;20071;-89
2022/05/16 09:12:42;;;;;;;10.15;3.00;;;;;;;;;;4960961;28;20088;-89
2022/05/16 09:15:08;;;;;;;6.55;2.67;;;;;;;;;;4972680;28;20037;-88
2022/05/16 09:18:03;;;;;;;8.55;3.08;;;;;;;;;;4957908;28;20035;-89
2022/05/16 09:20:29;;;;;;;9.27;3.23;;;;;;;;;;4948249;28;20153;-89
2022/05/16 09:23:15;;;;;;;7.47;2.83;;;;;;;;;;4971744;28;20469;-89
2022/05/16 09:25:51;;;;;;;21.58;3.80;;;;;;;;;;4968799;28;20274;-87
2022/05/16 09:28:36;;;;;;;6.40;2.65;;;;;;;;;;4965379;28;20026;-88
2022/05/16 09:31:08;;;;;;;8.95;2.90;;;;;;;;;;4974249;28;20062;-89
2022/05/16 09:33:35;;;;;;;9.63;4.32;;;;;;;;;;4971276;28;20034;-89
2022/05/16 09:36:02;;;;;;;19.02;3.53;;;;;;;;;;4963381;28;20062;-88
2022/05/16 09:38:28;;;;;;;19.35;3.35;;;;;;;;;;4966264;28;20026;-89
2022/05/16 09:41:01;;;;;;;13.10;4.20;;;;;;;;;;4973110;28;20027;-87
2022/05/16 09:43:30;;;;;;;18.38;4.18;;;;;;;;;;4970497;28;20036;-88
2022/05/16 09:46:00;;;;;;;13.70;3.17;;;;;;;;;;4972704;28;20441;-88
2022/05/16 09:48:26;;;;;;;15.38;2.78;;;;;;;;;;4960707;28;20472;-88
2022/05/16 09:51:03;;;;;;;13.25;3.10;;;;;;;;;;4971861;28;20089;-89
2022/05/16 09:53:31;;;;;;;15.68;3.45;;;;;;;;;;4984669;28;20014;-88
2022/05/16 09:56:02;;;;;;;12.15;3.30;;;;;;;;;;4973344;28;20022;-89
2022/05/16 09:58:46;;;;;;;16.70;3.92;;;;;;;;;;4969308;28;20089;-88
2022/05/16 10:01:14;;;;;;;13.98;3.40;;;;;;;;;;4972172;28;20546;-89
2022/05/16 10:03:43;;;;;;;8.93;3.15;;;;;;;;;;4982732;28;20114;-89
2022/05/16 10:06:10;;;;;;;12.48;3.40;;;;;;;;;;4967067;28;20406;-89
2022/05/16 10:08:39;;;;;;;21.23;3.50;;;;;;;;;;4967009;28;20065;-90
2022/05/16 10:11:08;;;;;;;8.70;3.08;;;;;;;;;;4972327;28;20045;-89
2022/05/16 10:13:35;;;;;;;9.05;2.80;;;;;;;;;;4968282;28;20029;-90
2022/05/16 10:16:03;;;;;;;5.25;2.63;;;;;;;;;;4958965;28;20066;-89
2022/05/16 10:18:31;;;;;;;9.00;3.13;;;;;;;;;;4969451;28;20076;-89
2022/05/16 10:21:03;;;;;;;6.57;3.20;;;;;;;;;;4961497;28;20045;-90
2022/05/16 10:23:33;;;;;;;13.93;3.30;;;;;;;;;;4967103;28;20129;-89
2022/05/16 10:26:02;;;;;;;6.78;2.92;;;;;;;;;;4967582;28;20027;-89
2022/05/16 10:28:31;;;;;;;14.48;3.78;;;;;;;;;;4965094;28;20037;-89
2022/05/16 10:33:45;;;;;;;10.10;3.03;;;;;;;;;;4983062;28;20172;-89
2022/05/16 10:36:24;;;;;;;7.88;2.63;;;;;;;;;;4962522;28;20066;-88
2022/05/16 10:39:11;;;;;;;13.60;3.15;;;;;;;;;;4981751;28;20505;-89
2022/05/16 10:41:45;;;;;;;11.73;3.00;;;;;;;;;;4962365;28;20037;-91
2022/05/16 10:44:29;;;;;;;13.88;2.70;;;;;;;;;;4958214;28;20034;-88
2022/05/16 10:47:01;;;;;;;9.43;3.50;;;;;;;;;;4968121;28;20034;-89
2022/05/16 10:49:30;;;;;;;7.88;3.03;;;;;;;;;;4967043;28;20070;-90
2022/05/16 10:52:04;;;;;;;9.77;3.00;;;;;;;;;;4979535;28;20057;-89
2022/05/16 10:54:30;;;;;;;6.72;3.15;;;;;;;;;;4981240;28;20034;-88
2022/05/16 10:56:58;;;;;;;18.52;3.60;;;;;;;;;;4981287;28;20555;-90
2022/05/16 10:59:44;;;;;;;9.93;3.55;;;;;;;;;;4980683;28;20073;-90
2022/05/16 11:02:09;;;;;;;15.13;3.22;;;;;;;;;;4983780;28;20065;-89
2022/05/16 11:04:35;;;;;;;9.98;2.72;;;;;;;;;;4970342;28;20066;-90
2022/05/16 11:07:21;;;;;;;6.30;2.72;;;;;;;;;;4981658;28;20026;-90
2022/05/16 11:09:56;;;;;;;9.57;3.20;;;;;;;;;;4960671;28;20044;-90
2022/05/16 11:12:25;;;;;;;9.30;2.47;;;;;;;;;;4975423;28;20033;-91
2022/05/16 11:15:06;;;;;;;22.75;3.85;;;;;;;;;;4970556;28;20065;-91
2022/05/16 11:17:32;;;;;;;12.73;2.90;;;;;;;;;;4966531;28;20034;-90
2022/05/16 11:20:08;;;;;;;14.65;2.90;;;;;;;;;;4967406;28;20041;-91
2022/05/16 11:22:45;;;;;;;9.48;3.35;;;;;;;;;;4984597;28;20034;-91
2022/05/16 11:25:21;;;;;;;14.23;4.13;;;;;;;;;;4973277;28;20522;-90
2022/05/16 11:27:58;;;;;;;12.90;4.05;;;;;;;;;;4948528;28;20039;-91
2022/05/16 11:30:33;;;;;;;30.98;9.48;;;;;;;;;;4958521;28;20395;-89
2022/05/16 11:33:15;;;;;;;7.15;3.15;;;;;;;;;;4965073;28;20058;-89
2022/05/16 11:35:51;;;;;;;10.88;3.75;;;;;;;;;;4952310;28;20550;-89
2022/05/16 11:38:23;;;;;;;6.80;3.50;;;;;;;;;;4950519;28;20070;-89
2022/05/16 11:40:58;;;;;;;12.18;3.42;;;;;;;;;;4956559;28;20039;-89
2022/05/16 11:43:24;;;;;;;10.70;3.03;;;;;;;;;;4966894;28;20035;-90
2022/05/16 11:45:50;;;;;;;9.23;2.95;;;;;;;;;;4950201;28;20399;-90
2022/05/16 11:48:25;;;;;;;8.52;2.70;;;;;;;;;;4973810;28;20039;-91
2022/05/16 11:50:58;;;;;;;7.07;2.95;;;;;;;;;;4966475;28;20070;-89
2022/05/16 11:53:24;;;;;;;25.88;3.50;;;;;;;;;;4958263;28;20080;-90
2022/05/16 12:01:33;;;;;;;6.35;3.03;;;;;;;;;;4969265;28;20081;-90
2022/05/16 12:04:12;;;;;;;9.90;3.42;;;;;;;;;;4951623;28;20415;-91
2022/05/16 12:06:42;;;;;;;9.93;2.90;;;;;;;;;;4967918;28;20033;-89
2022/05/16 12:09:19;;;;;;;9.48;3.10;;;;;;;;;;4958872;28;20065;-90
2022/05/16 12:11:51;;;;;;;8.40;2.80;;;;;;;;;;4950442;28;20039;-89
2022/05/16 12:14:28;;;;;;;15.30;3.08;;;;;;;;;;4960031;28;20031;-89
2022/05/16 12:17:13;;;;;;;13.27;2.90;;;;;;;;;;4948065;28;20098;-90
2022/05/16 12:19:40;;;;;;;8.77;3.08;;;;;;;;;;4953127;28;20586;-88
2022/05/16 12:22:08;;;;;;;9.70;3.38;;;;;;;;;;4962123;28;20343;-89
2022/05/16 12:24:41;;;;;;;14.50;3.42;;;;;;;;;;4958384;28;20133;-90
2022/05/16 12:27:07;;;;;;;9.93;3.00;;;;;;;;;;4946832;28;20336;-90
2022/05/16 12:29:42;;;;;;;15.18;3.10;;;;;;;;;;4953412;28;20039;-90
2022/05/16 12:32:09;;;;;;;4.75;2.90;;;;;;;;;;4949355;28;20085;-90
2022/05/16 12:34:40;;;;;;;14.77;3.28;;;;;;;;;;4966102;28;20110;-89
2022/05/16 12:37:11;;;;;;;8.40;3.10;;;;;;;;;;4949828;28;20031;-89
2022/05/16 12:39:43;;;;;;;16.83;3.33;;;;;;;;;;4951156;28;20050;-90
2022/05/16 12:42:28;;;;;;;16.45;4.30;;;;;;;;;;4947904;28;20498;-89
2022/05/16 12:44:59;;;;;;;13.50;3.78;;;;;;;;;;4955637;28;20521;-88
2022/05/16 12:47:28;;;;;;;10.93;3.95;;;;;;;;;;4950781;28;20126;-89
2022/05/16 12:50:13;;;;;;;25.95;4.00;;;;;;;;;;4945708;28;20093;-89
2022/05/16 12:52:58;;;;;;;12.55;3.65;;;;;;;;;;4953281;28;20086;-89
2022/05/16 12:55:40;;;;;;;11.27;3.45;;;;;;;;;;4947116;28;20126;-89
2022/05/16 12:58:12;;;;;;;12.52;3.80;;;;;;;;;;4946559;28;20027;-90
2022/05/16 13:00:46;;;;;;;9.10;4.00;;;;;;;;;;4958468;28;20062;-89
2022/05/16 13:03:28;;;;;;;15.13;4.97;;;;;;;;;;4963074;28;20062;-91
2022/05/16 13:05:57;;;;;;;15.80;3.75;;;;;;;;;;4965646;28;20043;-91
2022/05/16 13:08:24;;;;;;;16.00;3.95;;;;;;;;;;4945358;28;20541;-90
2022/05/16 13:11:09;;;;;;;10.52;3.55;;;;;;;;;;4951738;28;21307;-89
2022/05/16 13:13:56;;;;;;;11.02;3.53;;;;;;;;;;4967122;28;20038;-90
2022/05/16 13:16:22;;;;;;;16.75;4.05;;;;;;;;;;4948534;28;20035;-90
2022/05/16 13:18:52;;;;;;;14.43;3.83;;;;;;;;;;4966697;28;20081;-90
2022/05/16 13:21:19;;;;;;;9.80;4.00;;;;;;;;;;4950505;28;20448;-90
2022/05/16 13:23:52;;;;;;;13.93;4.05;;;;;;;;;;4968637;28;20126;-90
2022/05/16 13:29:23;;;;;;;13.73;4.50;;;;;;;;;;4987051;28;20038;-89
2022/05/16 13:31:52;;;;;;;13.13;4.40;;;;;;;;;;4973609;28;20041;-90
2022/05/16 13:34:33;;;;;;;16.40;3.67;;;;;;;;;;4982571;28;20356;-90
2022/05/16 13:37:00;;;;;;;12.02;4.05;;;;;;;;;;4970183;28;20374;-90
2022/05/16 13:39:28;;;;;;;29.38;4.60;;;;;;;;;;4965976;28;20026;-90
2022/05/16 13:41:58;;;;;;;28.92;5.38;;;;;;;;;;4974435;28;20056;-90
2022/05/16 13:44:24;;;;;;;14.60;4.03;;;;;;;;;;4965415;28;20073;-90
2022/05/16 13:46:54;;;;;;;12.48;4.32;;;;;;;;;;4992260;28;20026;-90
2022/05/16 13:49:20;;;;;;;18.77;4.65;;;;;;;;;;4973906;28;20367;-88
2022/05/16 13:51:49;;;;;;;10.77;5.22;;;;;;;;;;4975789;28;20026;-89
2022/05/16 13:54:23;;;;;;;18.08;4.72;;;;;;;;;;4966202;28;20516;-89
2022/05/16 13:56:49;;;;;;;18.40;4.97;;;;;;;;;;4980017;28;20080;-90
2022/05/16 13:59:20;;;;;;;11.77;4.15;;;;;;;;;;4992914;28;20512;-90
2022/05/16 14:01:50;;;;;;;11.93;4.70;;;;;;;;;;4986078;28;20037;-89
2022/05/16 14:04:19;;;;;;;13.25;5.32;;;;;;;;;;4975517;28;20121;-90
2022/05/16 14:06:47;;;;;;;10.70;4.57;;;;;;;;;;4966782;28;20042;-90
2022/05/16 14:09:14;;;;;;;18.33;4.72;;;;;;;;;;4966518;28;20057;-90
2022/05/16 14:11:40;;;;;;;11.82;4.38;;;;;;;;;;4975085;28;20053;-89
2022/05/16 14:14:06;;;;;;;10.30;4.25;;;;;;;;;;4963811;28;20046;-90
2022/05/16 14:16:34;;;;;;;11.32;5.55;;;;;;;;;;4970766;28;20062;-90
2022/05/16 14:19:06;;;;;;;21.20;6.43;;;;;;;;;;4967368;28;20706;-90
2022/05/16 14:21:52;;;;;;;9.05;4.50;;;;;;;;;;4974222;28;20279;-90
2022/05/16 14:24:21;;;;;;;10.90;4.72;;;;;;;;;;4970230;28;20043;-89
2022/05/16 14:26:49;;;;;;;14.30;5.10;;;;;;;;;;4966374;28;20058;-89
2022/05/16 14:29:23;;;;;;;8.50;5.13;;;;;;;;;;4988189;28;20034;-89
2022/05/16 14:32:09;;;;;;;12.05;6.60;;;;;;;;;;4967403;28;20541;-89
2022/05/16 14:34:37;;;;;;;14.25;6.18;;;;;;;;;;4967409;28;20193;-89
2022/05/16 14:37:22;;;;;;;19.35;6.40;;;;;;;;;;4970312;28;21036;-89
2022/05/16 14:39:52;;;;;;;15.40;5.88;;;;;;;;;;4970326;28;20042;-89
2022/05/16 14:42:23;;;;;;;12.75;6.32;;;;;;;;;;4966807;28;20764;-89
2022/05/16 14:45:02;;;;;;;12.57;5.60;;;;;;;;;;4966835;28;20030;-89
2022/05/16 14:47:39;;;;;;;12.57;6.32;;;;;;;;;;4967878;28;20035;-89
2022/05/16 14:50:06;;;;;;;15.02;6.15;;;;;;;;;;4969170;28;20483;-89
2022/05/16 14:52:33;;;;;;;15.05;6.35;;;;;;;;;;4980849;28;20030;-89
2022/05/16 14:55:02;;;;;;;14.43;8.05;;;;;;;;;;4970279;28;20031;-90
2022/05/16 14:57:28;;;;;;;15.93;6.85;;;;;;;;;;4963970;28;20031;-89
2022/05/16 14:59:54;;;;;;;14.10;5.82;;;;;;;;;;4968548;28;20044;-90
2022/05/16 15:05:05;;;;;;;16.10;8.60;;;;;;;;;;4987192;28;20041;-89
2022/05/16 15:07:35;;;;;;;15.68;7.95;;;;;;;;;;4962951;28;20035;-89
2022/05/16 15:10:01;;;;;;;15.80;9.23;;;;;;;;;;4983227;28;20034;-89
2022/05/16 15:12:27;;;;;;;12.75;9.15;;;;;;;;;;4966527;28;20369;-89
2022/05/16 15:14:53;;;;;;;22.73;9.55;;;;;;;;;;4968226;28;20485;-90
2022/05/16 15:17:19;;;;;;;21.88;11.15;;;;;;;;;;4968090;28;21268;-89
2022/05/16 15:19:45;;;;;;;22.25;13.00;;;;;;;;;;4981284;28;20105;-90
2022/05/16 15:22:12;;;;;;;23.98;11.35;;;;;;;;;;4966417;28;20129;-90
2022/05/16 15:24:59;;;;;;;25.65;13.40;;;;;;;;;;4963291;28;20042;-89
2022/05/16 15:27:25;;;;;;;21.65;12.40;;;;;;;;;;4963761;28;20046;-89
2022/05/16 15:29:51;;;;;;;27.67;13.40;;;;;;;;;;4965900;28;20033;-90